Oriental Lotus — ZGBC3 — position and weather

sailwx.info

Track history (hours):
 
Tides and Currents Weather Stations Pressure Air Temp Water Temp Dewpoint Dewpoint Depression Visibility Wind Speed Wind Dir Waves Ship Positions

Oriental Lotus

Last reported at 2018-Jul-17 04:00 UTC. Time now 2018-Jul-17 04:06 UTC.
Position N 51°53' E 004°21'.

Length 134 m; draft 5.2 m.

Type: Ship (hazmat cat B). MMSI: 319150000.

Date/timePositionNaut miles runAvg speedWind from/ knotsBaromVisibWave heightAir tempDewpointWater temp
2018-Jul-17 04:00N 51°53' E 004°21'0 0.0
2018-Jul-17 03:30N 51°53' E 004°21'0 0.0
2018-Jul-17 02:54N 51°53' E 004°21'0 0.0
2018-Jul-17 02:30N 51°53' E 004°21'0 0.0
2018-Jul-17 01:48N 51°53' E 004°21'0 0.0
2018-Jul-17 01:30N 51°53' E 004°21'0 0.0
2018-Jul-17 01:00N 51°53' E 004°21'0 0.0
2018-Jul-17 00:24N 51°53' E 004°21'0 0.0
2018-Jul-16 23:12N 51°53' E 004°21'0 0.0
2018-Jul-16 23:00N 51°53' E 004°21'0 0.0
2018-Jul-16 22:18N 51°53' E 004°21'0 0.0
2018-Jul-16 21:54N 51°53' E 004°21'0 0.0
2018-Jul-16 20:15N 51°53' E 004°21'0 0.0
2018-Jul-16 20:00N 51°53' E 004°21'0 0.0
2018-Jul-16 19:24N 51°53' E 004°21'0 0.0
2018-Jul-16 19:00N 51°53' E 004°21'0 0.0
2018-Jul-16 18:30N 51°53' E 004°21'0 0.0
2018-Jul-16 17:57N 51°53' E 004°21'0 0.0
2018-Jul-16 17:12N 51°53' E 004°21'0 0.0
2018-Jul-16 16:48N 51°53' E 004°21'0 0.0
2018-Jul-16 16:30N 51°53' E 004°21'0 0.0
2018-Jul-16 16:00N 51°53' E 004°21'0 0.0
2018-Jul-16 15:30N 51°53' E 004°21'0 0.8
2018-Jul-16 15:00N 51°53' E 004°21'2 3.9
2018-Jul-16 14:30N 51°54' E 004°18'4 9.0
2018-Jul-16 14:00N 51°56' E 004°12'3 6.9
2018-Jul-16 13:30N 51°58' E 004°07'4 7.4
2018-Jul-16 13:00N 51°60' E 004°02'2 4.7
2018-Jul-16 12:30N 52°00' E 003°58'5 9.4
2018-Jul-16 12:00N 51°60' E 003°50'4 7.4
2018-Jul-16 11:30N 51°59' E 003°44'4 8.5
2018-Jul-16 11:00N 51°57' E 003°38'1 2.3
2018-Jul-16 10:28N 51°56' E 003°37'0 0.0
2018-Jul-16 09:46N 51°56' E 003°37'0 0.0
2018-Jul-16 09:28N 51°56' E 003°37'0 0.1
2018-Jul-16 08:52N 51°56' E 003°37'0 0.1
2018-Jul-16 08:25N 51°56' E 003°37'0 0.1
2018-Jul-16 07:58N 51°56' E 003°37'0 0.1
2018-Jul-16 07:28N 51°56' E 003°37'0 0.0
2018-Jul-16 06:58N 51°56' E 003°37'0 0.0
2018-Jul-16 06:28N 51°56' E 003°37'0 0.0
2018-Jul-16 05:58N 51°56' E 003°37'0 0.0
2018-Jul-16 05:30N 51°56' E 003°37'0 0.0
2018-Jul-16 05:00N 51°56' E 003°37'0 0.0
2018-Jul-16 04:30N 51°56' E 003°37'0 0.0
2018-Jul-16 04:00N 51°56' E 003°37'1 1.5
2018-Jul-16 03:30N 51°57' E 003°37'510.7
2018-Jul-16 03:00N 51°56' E 003°28'714.0
2018-Jul-16 02:30N 51°54' E 003°17'713.5
2018-Jul-16 02:00N 51°52' E 003°07'713.3
2018-Jul-16 01:30N 51°51' E 002°56'612.9
2018-Jul-16 01:01N 51°49' E 002°46'611.7
2018-Jul-16 00:30N 51°46' E 002°38'611.4
2018-Jul-16 00:00N 51°42' E 002°32'611.2
2018-Jul-15 23:30N 51°38' E 002°26'510.9
2018-Jul-15 23:00N 51°33' E 002°20'510.5
2018-Jul-15 22:30N 51°30' E 002°15'510.2
2018-Jul-15 22:01N 51°25' E 002°11'510.4
2018-Jul-15 21:30N 51°20' E 002°08'510.5
2018-Jul-15 21:00N 51°15' E 002°05'5 9.8
2018-Jul-15 20:30N 51°12' E 001°59'510.4
2018-Jul-15 20:00N 51°09' E 001°52'510.4
2018-Jul-15 19:30N 51°06' E 001°46'510.5
2018-Jul-15 19:00N 51°02' E 001°40'611.1
2018-Jul-15 18:30N 50°58' E 001°34'611.8
2018-Jul-15 18:00N 50°53' E 001°28'612.4
2018-Jul-15 17:30N 50°47' E 001°25'612.2
2018-Jul-15 17:00N 50°42' E 001°21'612.5
2018-Jul-15 16:30N 50°38' E 001°13'612.7
2018-Jul-15 16:00N 50°33' E 001°06'612.3
2018-Jul-15 15:30N 50°29' E 000°59'612.3
2018-Jul-15 15:00N 50°28' E 000°49'612.2
2018-Jul-15 14:30N 50°26' E 000°40'712.3
2018-Jul-15 13:58N 50°25' E 000°30'612.5
2018-Jul-15 13:30N 50°23' E 000°21'612.7
2018-Jul-15 13:00N 50°21' E 000°11'713.3
2018-Jul-15 12:30N 50°20' E 000°01'713.8
2018-Jul-15 12:00N 50°18' W 000°09'814.4
2018-Jul-15 11:28N 50°16' W 000°21'715.1
2018-Jul-15 11:01N 50°14' W 000°31'815.6
2018-Jul-15 10:30N 50°12' W 000°43'816.1
2018-Jul-15 10:00N 50°10' W 000°55'816.1
2018-Jul-15 09:30N 50°07' W 001°07'815.3
2018-Jul-15 09:00N 50°05' W 001°19'815.9
2018-Jul-15 08:28N 50°04' W 001°31'1015.5
2018-Jul-15 07:50N 50°01' W 001°46'515.1
2018-Jul-15 07:30N 49°60' W 001°54'714.3
2018-Jul-15 07:00N 49°58' W 002°05'713.3
2018-Jul-15 06:30N 49°56' W 002°15'1112.5
2018-Jul-15 05:36N 49°53' W 002°32'112.2
2018-Jul-15 05:30N 49°53' W 002°33'611.8
2018-Jul-15 04:57N 49°51' W 002°43'611.4
2018-Jul-15 04:25N 49°50' W 002°52'410.8
2018-Jul-15 04:00N 49°49' W 002°59'510.3
2018-Jul-15 03:30N 49°46' W 003°06'510.1
2018-Jul-15 03:00N 49°44' W 003°13'510.1
2018-Jul-15 02:31N 49°41' W 003°19'510.2
2018-Jul-15 02:00N 49°38' W 003°26'610.3
2018-Jul-15 01:27N 49°35' W 003°34'510.5
2018-Jul-15 01:00N 49°33' W 003°40'611.1
2018-Jul-15 00:30N 49°30' W 003°47'611.1
2018-Jul-14 23:55N 49°27' W 003°55'611.1
2018-Jul-14 23:21N 49°23' W 004°04'411.3
2018-Jul-14 23:00N 49°22' W 004°09'1211.5
2018-Jul-14 21:56N 49°15' W 004°25'511.6
2018-Jul-14 21:30N 49°12' W 004°32'1411.8
2018-Jul-14 20:16N 49°05' W 004°51'512.5
2018-Jul-14 19:52N 49°02' W 004°57'912.9
2018-Jul-14 19:12N 48°58' W 005°09'313.4
2018-Jul-14 18:58N 48°56' W 005°12'613.1
2018-Jul-14 18:30N 48°53' W 005°20'713.2
2018-Jul-14 18:01N 48°50' W 005°29'913.5
2018-Jul-14 17:20N 48°43' W 005°39'513.6
2018-Jul-14 16:57N 48°39' W 005°43'713.6
2018-Jul-14 16:24N 48°33' W 005°49'714.2
2018-Jul-14 15:57N 48°27' W 005°53'7912.6
2018-Jul-14 09:39N 47°17' W 006°50'374 9.7
2018-Jul-12 19:15N 41°12' W 008°47'311.5
2018-Jul-12 19:00N 41°10' W 008°46'3 5.0
2018-Jul-12 18:30N 41°11' W 008°43'0 0.1
2018-Jul-12 18:00N 41°11' W 008°43'0 0.0
2018-Jul-12 17:30N 41°11' W 008°43'0 0.0
2018-Jul-12 17:00N 41°11' W 008°43'0 0.0
2018-Jul-12 16:30N 41°11' W 008°43'0 0.0
2018-Jul-12 16:00N 41°11' W 008°43'0 0.0
2018-Jul-12 15:30N 41°11' W 008°43'0 0.0
2018-Jul-12 15:00N 41°11' W 008°43'0 0.0
2018-Jul-12 14:30N 41°11' W 008°43'0 0.0
2018-Jul-12 14:00N 41°11' W 008°43'0 0.0
2018-Jul-12 13:30N 41°11' W 008°43'0 0.0
2018-Jul-12 13:00N 41°11' W 008°43'0 0.0
2018-Jul-12 12:30N 41°11' W 008°43'0 0.0
2018-Jul-12 12:00N 41°11' W 008°43'0 0.0
2018-Jul-12 11:27N 41°11' W 008°43'0 0.0
2018-Jul-12 11:00N 41°11' W 008°43'0 0.0
2018-Jul-12 10:30N 41°11' W 008°43'0 0.0
2018-Jul-12 10:00N 41°11' W 008°43'0 0.0
2018-Jul-12 09:30N 41°11' W 008°43'0 0.0
2018-Jul-12 09:00N 41°11' W 008°43'0 0.0
2018-Jul-12 08:30N 41°11' W 008°43'0 0.0
2018-Jul-12 08:00N 41°11' W 008°43'0 0.0
2018-Jul-12 07:30N 41°11' W 008°43'0 0.0
2018-Jul-12 07:00N 41°11' W 008°43'0 0.0
2018-Jul-12 06:30N 41°11' W 008°43'0 0.8
2018-Jul-12 06:00N 41°11' W 008°42'3 5.2
2018-Jul-12 05:30N 41°09' W 008°44'1 2.4
2018-Jul-12 05:00N 41°08' W 008°45'1 1.7
2018-Jul-12 04:30N 41°07' W 008°46'0 0.0
2018-Jul-12 04:00N 41°07' W 008°46'0 0.0
2018-Jul-12 03:30N 41°07' W 008°46'0 0.0
2018-Jul-12 02:57N 41°07' W 008°46'0 0.0
2018-Jul-12 02:27N 41°07' W 008°46'0 0.0
2018-Jul-12 01:57N 41°07' W 008°46'0 0.0
2018-Jul-12 01:30N 41°07' W 008°46'0 0.0
2018-Jul-12 00:57N 41°07' W 008°46'0 0.0
2018-Jul-12 00:24N 41°07' W 008°46'0 0.0
2018-Jul-11 23:36N 41°07' W 008°46'0 0.0
2018-Jul-11 23:09N 41°07' W 008°46'0 0.0
2018-Jul-11 22:39N 41°07' W 008°46'0 0.1
2018-Jul-11 22:30N 41°07' W 008°46'0 0.0
2018-Jul-11 21:57N 41°07' W 008°46'0 0.0
2018-Jul-11 21:30N 41°07' W 008°46'0 0.0
2018-Jul-11 21:00N 41°07' W 008°46'0 0.0
2018-Jul-11 20:30N 41°07' W 008°46'0 0.0
2018-Jul-11 20:00N 41°07' W 008°46'0 0.0
2018-Jul-11 19:15N 41°07' W 008°46'0 0.0
2018-Jul-11 19:00N 41°07' W 008°46'0 0.0
2018-Jul-11 18:27N 41°07' W 008°46'0 0.0
2018-Jul-11 16:48N 41°07' W 008°46'0 0.0
2018-Jul-11 15:12N 41°07' W 008°46'0 0.0
2018-Jul-11 13:21N 41°07' W 008°46'0 0.0
2018-Jul-11 12:54N 41°07' W 008°46'0 0.2
2018-Jul-11 12:30N 41°07' W 008°46'2 3.8
2018-Jul-11 12:00N 41°05' W 008°48'8311.2
2018-Jul-11 04:36N 39°55' W 009°45'111.6
2018-Jul-11 04:30N 39°54' W 009°46'3111.1
2018-Jul-11 01:44N 39°24' W 009°57'311.6
2018-Jul-11 01:30N 39°22' W 009°57'910.4
2018-Jul-11 00:39N 39°13' W 009°57'4 9.3
2018-Jul-11 00:15N 39°09' W 009°57'311.6
2018-Jul-11 00:00N 39°06' W 009°57'611.8
2018-Jul-10 23:30N 39°00' W 009°57'611.6
2018-Jul-10 23:00N 38°55' W 009°57'611.3
2018-Jul-10 22:30N 38°49' W 009°57'611.5
2018-Jul-10 22:00N 38°43' W 009°57'611.5
2018-Jul-10 21:30N 38°38' W 009°56'611.5
2018-Jul-10 21:00N 38°32' W 009°54'611.4
2018-Jul-10 20:30N 38°26' W 009°52'1511.4
2018-Jul-10 19:10N 38°12' W 009°48'211.5
2018-Jul-10 19:00N 38°10' W 009°47'711.4
2018-Jul-10 18:21N 38°03' W 009°44'411.3
2018-Jul-10 18:00N 37°59' W 009°43'611.3
2018-Jul-10 17:30N 37°53' W 009°42'611.3
2018-Jul-10 17:00N 37°48' W 009°40'611.3
2018-Jul-10 16:29N 37°42' W 009°39'511.1
2018-Jul-10 16:00N 37°37' W 009°37'611.0
2018-Jul-10 15:30N 37°31' W 009°36'610.9
2018-Jul-10 15:00N 37°26' W 009°34'510.9
2018-Jul-10 14:30N 37°21' W 009°33'711.2
2018-Jul-10 13:55N 37°14' W 009°31'511.3
2018-Jul-10 13:30N 37°10' W 009°30'511.0
2018-Jul-10 13:00N 37°04' W 009°28'611.4
2018-Jul-10 12:30N 36°59' W 009°27'611.5
2018-Jul-10 11:59N 36°53' W 009°25'511.0
2018-Jul-10 11:30N 36°48' W 009°22'811.4
2018-Jul-10 10:49N 36°43' W 009°15'910.9
2018-Jul-10 10:01N 36°39' W 009°05'1211.1
2018-Jul-10 08:58N 36°37' W 008°51'2511.1
2018-Jul-10 06:40N 36°33' W 008°20'211.1
2018-Jul-10 06:30N 36°32' W 008°17'1811.1
2018-Jul-10 04:51N 36°29' W 007°55'1911.7
2018-Jul-10 03:14N 36°22' W 007°33'311.9
2018-Jul-10 02:58N 36°21' W 007°29'711.7
2018-Jul-10 02:21N 36°18' W 007°21'511.8
2018-Jul-10 01:57N 36°17' W 007°15'611.9
2018-Jul-10 01:29N 36°15' W 007°09'1611.9
2018-Jul-10 00:10N 36°09' W 006°51'611.9
2018-Jul-09 23:39N 36°07' W 006°44'211.7
2018-Jul-09 23:30N 36°07' W 006°42'1011.4
2018-Jul-09 22:39N 36°03' W 006°30'2512.2
2018-Jul-09 20:37N 35°57' W 006°01'412.5
2018-Jul-09 20:20N 35°57' W 005°56'612.7
2018-Jul-09 19:49N 35°57' W 005°48'413.4
2018-Jul-09 19:30N 35°58' W 005°43'612.3
2018-Jul-09 19:00N 35°58' W 005°35'510.9
2018-Jul-09 18:30N 35°59' W 005°29'5 9.9
2018-Jul-09 18:00N 36°01' W 005°23'5 9.6
2018-Jul-09 17:31N 36°02' W 005°17'21611.5
2018-Jul-08 22:46N 36°28' W 000°51'14711.7
2018-Jul-08 10:16N 37°04' E 002°07'511.8
2018-Jul-08 09:49N 37°05' E 002°13'2012.1
2018-Jul-08 08:09N 37°10' E 002°38'212.2
2018-Jul-08 07:59N 37°11' E 002°40'612.2
2018-Jul-08 07:30N 37°12' E 002°47'611.9
2018-Jul-08 07:00N 37°14' E 002°54'2412.9
2018-Jul-08 05:07N 37°20' E 003°24'213.4
2018-Jul-08 04:59N 37°20' E 003°26'613.5
2018-Jul-08 04:30N 37°22' E 003°34'713.5
2018-Jul-08 04:00N 37°23' E 003°42'713.5
2018-Jul-08 03:30N 37°25' E 003°51'713.9
2018-Jul-08 03:00N 37°27' E 003°59'714.2
2018-Jul-08 02:30N 37°29' E 004°08'814.1
2018-Jul-08 01:56N 37°30' E 004°17'613.9
2018-Jul-08 01:30N 37°32' E 004°25'1213.7
2018-Jul-08 00:36N 37°35' E 004°40'1913.6
2018-Jul-07 23:12N 37°39' E 005°03'314.0
2018-Jul-07 22:59N 37°39' E 005°07'714.1
2018-Jul-07 22:28N 37°39' E 005°17'1914.5
2018-Jul-07 21:08N 37°39' E 005°41'214.0
2018-Jul-07 21:00N 37°39' E 005°43'713.8
2018-Jul-07 20:29N 37°39' E 005°52'813.6
2018-Jul-07 19:55N 37°39' E 006°02'  
Track history (hours):
 
Tides and Currents Weather Stations Pressure Air Temp Water Temp Dewpoint Dewpoint Depression Visibility Wind Speed Wind Dir Waves Ship Positions

Oriental Lotus

Last reported at 2018-Jul-17 04:00 UTC. Time now 2018-Jul-17 04:06 UTC.
Position N 51°53' E 004°21'.

Length 134 m; draft 5.2 m.

Type: Ship (hazmat cat B). MMSI: 319150000.

Date/timePositionNaut miles runAvg speedWind from/ knotsBaromVisibWave heightAir tempDewpointWater temp
2018-Jul-17 04:00N 51°53' E 004°21'0 0.0
2018-Jul-17 03:30N 51°53' E 004°21'0 0.0
2018-Jul-17 02:54N 51°53' E 004°21'0 0.0
2018-Jul-17 02:30N 51°53' E 004°21'0 0.0
2018-Jul-17 01:48N 51°53' E 004°21'0 0.0
2018-Jul-17 01:30N 51°53' E 004°21'0 0.0
2018-Jul-17 01:00N 51°53' E 004°21'0 0.0
2018-Jul-17 00:24N 51°53' E 004°21'0 0.0
2018-Jul-16 23:12N 51°53' E 004°21'0 0.0
2018-Jul-16 23:00N 51°53' E 004°21'0 0.0
2018-Jul-16 22:18N 51°53' E 004°21'0 0.0
2018-Jul-16 21:54N 51°53' E 004°21'0 0.0
2018-Jul-16 20:15N 51°53' E 004°21'0 0.0
2018-Jul-16 20:00N 51°53' E 004°21'0 0.0
2018-Jul-16 19:24N 51°53' E 004°21'0 0.0
2018-Jul-16 19:00N 51°53' E 004°21'0 0.0
2018-Jul-16 18:30N 51°53' E 004°21'0 0.0
2018-Jul-16 17:57N 51°53' E 004°21'0 0.0
2018-Jul-16 17:12N 51°53' E 004°21'0 0.0
2018-Jul-16 16:48N 51°53' E 004°21'0 0.0
2018-Jul-16 16:30N 51°53' E 004°21'0 0.0
2018-Jul-16 16:00N 51°53' E 004°21'0 0.0
2018-Jul-16 15:30N 51°53' E 004°21'0 0.8
2018-Jul-16 15:00N 51°53' E 004°21'2 3.9
2018-Jul-16 14:30N 51°54' E 004°18'4 9.0
2018-Jul-16 14:00N 51°56' E 004°12'3 6.9
2018-Jul-16 13:30N 51°58' E 004°07'4 7.4
2018-Jul-16 13:00N 51°60' E 004°02'2 4.7
2018-Jul-16 12:30N 52°00' E 003°58'5 9.4
2018-Jul-16 12:00N 51°60' E 003°50'4 7.4
2018-Jul-16 11:30N 51°59' E 003°44'4 8.5
2018-Jul-16 11:00N 51°57' E 003°38'1 2.3
2018-Jul-16 10:28N 51°56' E 003°37'0 0.0
2018-Jul-16 09:46N 51°56' E 003°37'0 0.0
2018-Jul-16 09:28N 51°56' E 003°37'0 0.1
2018-Jul-16 08:52N 51°56' E 003°37'0 0.1
2018-Jul-16 08:25N 51°56' E 003°37'0 0.1
2018-Jul-16 07:58N 51°56' E 003°37'0 0.1
2018-Jul-16 07:28N 51°56' E 003°37'0 0.0
2018-Jul-16 06:58N 51°56' E 003°37'0 0.0
2018-Jul-16 06:28N 51°56' E 003°37'0 0.0
2018-Jul-16 05:58N 51°56' E 003°37'0 0.0
2018-Jul-16 05:30N 51°56' E 003°37'0 0.0
2018-Jul-16 05:00N 51°56' E 003°37'0 0.0
2018-Jul-16 04:30N 51°56' E 003°37'0 0.0
2018-Jul-16 04:00N 51°56' E 003°37'1 1.5
2018-Jul-16 03:30N 51°57' E 003°37'510.7
2018-Jul-16 03:00N 51°56' E 003°28'714.0
2018-Jul-16 02:30N 51°54' E 003°17'713.5
2018-Jul-16 02:00N 51°52' E 003°07'713.3
2018-Jul-16 01:30N 51°51' E 002°56'612.9
2018-Jul-16 01:01N 51°49' E 002°46'611.7
2018-Jul-16 00:30N 51°46' E 002°38'611.4
2018-Jul-16 00:00N 51°42' E 002°32'611.2
2018-Jul-15 23:30N 51°38' E 002°26'510.9
2018-Jul-15 23:00N 51°33' E 002°20'510.5
2018-Jul-15 22:30N 51°30' E 002°15'510.2
2018-Jul-15 22:01N 51°25' E 002°11'510.4
2018-Jul-15 21:30N 51°20' E 002°08'510.5
2018-Jul-15 21:00N 51°15' E 002°05'5 9.8
2018-Jul-15 20:30N 51°12' E 001°59'510.4
2018-Jul-15 20:00N 51°09' E 001°52'510.4
2018-Jul-15 19:30N 51°06' E 001°46'510.5
2018-Jul-15 19:00N 51°02' E 001°40'611.1
2018-Jul-15 18:30N 50°58' E 001°34'611.8
2018-Jul-15 18:00N 50°53' E 001°28'612.4
2018-Jul-15 17:30N 50°47' E 001°25'612.2
2018-Jul-15 17:00N 50°42' E 001°21'612.5
2018-Jul-15 16:30N 50°38' E 001°13'612.7
2018-Jul-15 16:00N 50°33' E 001°06'612.3
2018-Jul-15 15:30N 50°29' E 000°59'612.3
2018-Jul-15 15:00N 50°28' E 000°49'612.2
2018-Jul-15 14:30N 50°26' E 000°40'712.3
2018-Jul-15 13:58N 50°25' E 000°30'612.5
2018-Jul-15 13:30N 50°23' E 000°21'612.7
2018-Jul-15 13:00N 50°21' E 000°11'713.3
2018-Jul-15 12:30N 50°20' E 000°01'713.8
2018-Jul-15 12:00N 50°18' W 000°09'814.4
2018-Jul-15 11:28N 50°16' W 000°21'715.1
2018-Jul-15 11:01N 50°14' W 000°31'815.6
2018-Jul-15 10:30N 50°12' W 000°43'816.1
2018-Jul-15 10:00N 50°10' W 000°55'816.1
2018-Jul-15 09:30N 50°07' W 001°07'815.3
2018-Jul-15 09:00N 50°05' W 001°19'815.9
2018-Jul-15 08:28N 50°04' W 001°31'1015.5
2018-Jul-15 07:50N 50°01' W 001°46'515.1
2018-Jul-15 07:30N 49°60' W 001°54'714.3
2018-Jul-15 07:00N 49°58' W 002°05'713.3
2018-Jul-15 06:30N 49°56' W 002°15'1112.5
2018-Jul-15 05:36N 49°53' W 002°32'112.2
2018-Jul-15 05:30N 49°53' W 002°33'611.8
2018-Jul-15 04:57N 49°51' W 002°43'611.4
2018-Jul-15 04:25N 49°50' W 002°52'410.8
2018-Jul-15 04:00N 49°49' W 002°59'510.3
2018-Jul-15 03:30N 49°46' W 003°06'510.1
2018-Jul-15 03:00N 49°44' W 003°13'510.1
2018-Jul-15 02:31N 49°41' W 003°19'510.2
2018-Jul-15 02:00N 49°38' W 003°26'610.3
2018-Jul-15 01:27N 49°35' W 003°34'510.5
2018-Jul-15 01:00N 49°33' W 003°40'611.1
2018-Jul-15 00:30N 49°30' W 003°47'611.1
2018-Jul-14 23:55N 49°27' W 003°55'611.1
2018-Jul-14 23:21N 49°23' W 004°04'411.3
2018-Jul-14 23:00N 49°22' W 004°09'1211.5
2018-Jul-14 21:56N 49°15' W 004°25'511.6
2018-Jul-14 21:30N 49°12' W 004°32'1411.8
2018-Jul-14 20:16N 49°05' W 004°51'512.5
2018-Jul-14 19:52N 49°02' W 004°57'912.9
2018-Jul-14 19:12N 48°58' W 005°09'313.4
2018-Jul-14 18:58N 48°56' W 005°12'613.1
2018-Jul-14 18:30N 48°53' W 005°20'713.2
2018-Jul-14 18:01N 48°50' W 005°29'913.5
2018-Jul-14 17:20N 48°43' W 005°39'513.6
2018-Jul-14 16:57N 48°39' W 005°43'713.6
2018-Jul-14 16:24N 48°33' W 005°49'714.2
2018-Jul-14 15:57N 48°27' W 005°53'7912.6
2018-Jul-14 09:39N 47°17' W 006°50'374 9.7
2018-Jul-12 19:15N 41°12' W 008°47'311.5
2018-Jul-12 19:00N 41°10' W 008°46'3 5.0
2018-Jul-12 18:30N 41°11' W 008°43'0 0.1
2018-Jul-12 18:00N 41°11' W 008°43'0 0.0
2018-Jul-12 17:30N 41°11' W 008°43'0 0.0
2018-Jul-12 17:00N 41°11' W 008°43'0 0.0
2018-Jul-12 16:30N 41°11' W 008°43'0 0.0
2018-Jul-12 16:00N 41°11' W 008°43'0 0.0
2018-Jul-12 15:30N 41°11' W 008°43'0 0.0
2018-Jul-12 15:00N 41°11' W 008°43'0 0.0
2018-Jul-12 14:30N 41°11' W 008°43'0 0.0
2018-Jul-12 14:00N 41°11' W 008°43'0 0.0
2018-Jul-12 13:30N 41°11' W 008°43'0 0.0
2018-Jul-12 13:00N 41°11' W 008°43'0 0.0
2018-Jul-12 12:30N 41°11' W 008°43'0 0.0
2018-Jul-12 12:00N 41°11' W 008°43'0 0.0
2018-Jul-12 11:27N 41°11' W 008°43'0 0.0
2018-Jul-12 11:00N 41°11' W 008°43'0 0.0
2018-Jul-12 10:30N 41°11' W 008°43'0 0.0
2018-Jul-12 10:00N 41°11' W 008°43'0 0.0
2018-Jul-12 09:30N 41°11' W 008°43'0 0.0
2018-Jul-12 09:00N 41°11' W 008°43'0 0.0
2018-Jul-12 08:30N 41°11' W 008°43'0 0.0
2018-Jul-12 08:00N 41°11' W 008°43'0 0.0
2018-Jul-12 07:30N 41°11' W 008°43'0 0.0
2018-Jul-12 07:00N 41°11' W 008°43'0 0.0
2018-Jul-12 06:30N 41°11' W 008°43'0 0.8
2018-Jul-12 06:00N 41°11' W 008°42'3 5.2
2018-Jul-12 05:30N 41°09' W 008°44'1 2.4
2018-Jul-12 05:00N 41°08' W 008°45'1 1.7
2018-Jul-12 04:30N 41°07' W 008°46'0 0.0
2018-Jul-12 04:00N 41°07' W 008°46'0 0.0
2018-Jul-12 03:30N 41°07' W 008°46'0 0.0
2018-Jul-12 02:57N 41°07' W 008°46'0 0.0
2018-Jul-12 02:27N 41°07' W 008°46'0 0.0
2018-Jul-12 01:57N 41°07' W 008°46'0 0.0
2018-Jul-12 01:30N 41°07' W 008°46'0 0.0
2018-Jul-12 00:57N 41°07' W 008°46'0 0.0
2018-Jul-12 00:24N 41°07' W 008°46'0 0.0
2018-Jul-11 23:36N 41°07' W 008°46'0 0.0
2018-Jul-11 23:09N 41°07' W 008°46'0 0.0
2018-Jul-11 22:39N 41°07' W 008°46'0 0.1
2018-Jul-11 22:30N 41°07' W 008°46'0 0.0
2018-Jul-11 21:57N 41°07' W 008°46'0 0.0
2018-Jul-11 21:30N 41°07' W 008°46'0 0.0
2018-Jul-11 21:00N 41°07' W 008°46'0 0.0
2018-Jul-11 20:30N 41°07' W 008°46'0 0.0
2018-Jul-11 20:00N 41°07' W 008°46'0 0.0
2018-Jul-11 19:15N 41°07' W 008°46'0 0.0
2018-Jul-11 19:00N 41°07' W 008°46'0 0.0
2018-Jul-11 18:27N 41°07' W 008°46'0 0.0
2018-Jul-11 16:48N 41°07' W 008°46'0 0.0
2018-Jul-11 15:12N 41°07' W 008°46'0 0.0
2018-Jul-11 13:21N 41°07' W 008°46'0 0.0
2018-Jul-11 12:54N 41°07' W 008°46'0 0.2
2018-Jul-11 12:30N 41°07' W 008°46'2 3.8
2018-Jul-11 12:00N 41°05' W 008°48'8311.2
2018-Jul-11 04:36N 39°55' W 009°45'111.6
2018-Jul-11 04:30N 39°54' W 009°46'3111.1
2018-Jul-11 01:44N 39°24' W 009°57'311.6
2018-Jul-11 01:30N 39°22' W 009°57'910.4
2018-Jul-11 00:39N 39°13' W 009°57'4 9.3
2018-Jul-11 00:15N 39°09' W 009°57'311.6
2018-Jul-11 00:00N 39°06' W 009°57'611.8
2018-Jul-10 23:30N 39°00' W 009°57'611.6
2018-Jul-10 23:00N 38°55' W 009°57'611.3
2018-Jul-10 22:30N 38°49' W 009°57'611.5
2018-Jul-10 22:00N 38°43' W 009°57'611.5
2018-Jul-10 21:30N 38°38' W 009°56'611.5
2018-Jul-10 21:00N 38°32' W 009°54'611.4
2018-Jul-10 20:30N 38°26' W 009°52'1511.4
2018-Jul-10 19:10N 38°12' W 009°48'211.5
2018-Jul-10 19:00N 38°10' W 009°47'711.4
2018-Jul-10 18:21N 38°03' W 009°44'411.3
2018-Jul-10 18:00N 37°59' W 009°43'611.3
2018-Jul-10 17:30N 37°53' W 009°42'611.3
2018-Jul-10 17:00N 37°48' W 009°40'611.3
2018-Jul-10 16:29N 37°42' W 009°39'511.1
2018-Jul-10 16:00N 37°37' W 009°37'611.0
2018-Jul-10 15:30N 37°31' W 009°36'610.9
2018-Jul-10 15:00N 37°26' W 009°34'510.9
2018-Jul-10 14:30N 37°21' W 009°33'711.2
2018-Jul-10 13:55N 37°14' W 009°31'511.3
2018-Jul-10 13:30N 37°10' W 009°30'511.0
2018-Jul-10 13:00N 37°04' W 009°28'611.4
2018-Jul-10 12:30N 36°59' W 009°27'611.5
2018-Jul-10 11:59N 36°53' W 009°25'511.0
2018-Jul-10 11:30N 36°48' W 009°22'811.4
2018-Jul-10 10:49N 36°43' W 009°15'910.9
2018-Jul-10 10:01N 36°39' W 009°05'1211.1
2018-Jul-10 08:58N 36°37' W 008°51'2511.1
2018-Jul-10 06:40N 36°33' W 008°20'211.1
2018-Jul-10 06:30N 36°32' W 008°17'1811.1
2018-Jul-10 04:51N 36°29' W 007°55'1911.7
2018-Jul-10 03:14N 36°22' W 007°33'311.9
2018-Jul-10 02:58N 36°21' W 007°29'711.7
2018-Jul-10 02:21N 36°18' W 007°21'511.8
2018-Jul-10 01:57N 36°17' W 007°15'611.9
2018-Jul-10 01:29N 36°15' W 007°09'1611.9
2018-Jul-10 00:10N 36°09' W 006°51'611.9
2018-Jul-09 23:39N 36°07' W 006°44'211.7
2018-Jul-09 23:30N 36°07' W 006°42'1011.4
2018-Jul-09 22:39N 36°03' W 006°30'2512.2
2018-Jul-09 20:37N 35°57' W 006°01'412.5
2018-Jul-09 20:20N 35°57' W 005°56'612.7
2018-Jul-09 19:49N 35°57' W 005°48'413.4
2018-Jul-09 19:30N 35°58' W 005°43'612.3
2018-Jul-09 19:00N 35°58' W 005°35'510.9
2018-Jul-09 18:30N 35°59' W 005°29'5 9.9
2018-Jul-09 18:00N 36°01' W 005°23'5 9.6
2018-Jul-09 17:31N 36°02' W 005°17'21611.5
2018-Jul-08 22:46N 36°28' W 000°51'14711.7
2018-Jul-08 10:16N 37°04' E 002°07'511.8
2018-Jul-08 09:49N 37°05' E 002°13'2012.1
2018-Jul-08 08:09N 37°10' E 002°38'212.2
2018-Jul-08 07:59N 37°11' E 002°40'612.2
2018-Jul-08 07:30N 37°12' E 002°47'611.9
2018-Jul-08 07:00N 37°14' E 002°54'2412.9
2018-Jul-08 05:07N 37°20' E 003°24'213.4
2018-Jul-08 04:59N 37°20' E 003°26'613.5
2018-Jul-08 04:30N 37°22' E 003°34'713.5
2018-Jul-08 04:00N 37°23' E 003°42'713.5
2018-Jul-08 03:30N 37°25' E 003°51'713.9
2018-Jul-08 03:00N 37°27' E 003°59'714.2
2018-Jul-08 02:30N 37°29' E 004°08'814.1
2018-Jul-08 01:56N 37°30' E 004°17'613.9
2018-Jul-08 01:30N 37°32' E 004°25'1213.7
2018-Jul-08 00:36N 37°35' E 004°40'1913.6
2018-Jul-07 23:12N 37°39' E 005°03'314.0
2018-Jul-07 22:59N 37°39' E 005°07'714.1
2018-Jul-07 22:28N 37°39' E 005°17'1914.5
2018-Jul-07 21:08N 37°39' E 005°41'214.0
2018-Jul-07 21:00N 37°39' E 005°43'713.8
2018-Jul-07 20:29N 37°39' E 005°52'813.6
2018-Jul-07 19:55N 37°39' E 006°02'  

Dump ship's entire track history